sensor_id;sensor_type;location;lat;lon;timestamp;temperature;humidity
15906;DHT22;8051;50.820;4.884;2023-11-22T00:00:43;4.60;99.90
15906;DHT22;8051;50.820;4.884;2023-11-22T00:03:11;4.50;99.90
15906;DHT22;8051;50.820;4.884;2023-11-22T00:05:38;4.50;99.90
15906;DHT22;8051;50.820;4.884;2023-11-22T00:08:08;4.50;99.90
15906;DHT22;8051;50.820;4.884;2023-11-22T00:10:35;4.40;99.90
15906;DHT22;8051;50.820;4.884;2023-11-22T00:13:02;4.40;99.90
15906;DHT22;8051;50.820;4.884;2023-11-22T00:15:30;4.40;99.90
15906;DHT22;8051;50.820;4.884;2023-11-22T00:17:57;4.40;99.90
15906;DHT22;8051;50.820;4.884;2023-11-22T00:20:29;4.40;99.90
15906;DHT22;8051;50.820;4.884;2023-11-22T00:22:57;4.30;99.90
15906;DHT22;8051;50.820;4.884;2023-11-22T00:25:26;4.30;99.90
15906;DHT22;8051;50.820;4.884;2023-11-22T00:27:53;4.30;99.90
15906;DHT22;8051;50.820;4.884;2023-11-22T00:30:21;4.30;99.90
15906;DHT22;8051;50.820;4.884;2023-11-22T00:32:49;4.30;99.90
15906;DHT22;8051;50.820;4.884;2023-11-22T00:35:17;4.30;99.90
15906;DHT22;8051;50.820;4.884;2023-11-22T00:37:44;4.30;99.90
15906;DHT22;8051;50.820;4.884;2023-11-22T00:40:12;4.30;99.90
15906;DHT22;8051;50.820;4.884;2023-11-22T00:42:41;4.40;99.90
15906;DHT22;8051;50.820;4.884;2023-11-22T00:45:09;4.50;99.90
15906;DHT22;8051;50.820;4.884;2023-11-22T00:47:37;4.60;99.90
15906;DHT22;8051;50.820;4.884;2023-11-22T00:50:06;4.70;99.90
15906;DHT22;8051;50.820;4.884;2023-11-22T00:52:34;4.70;99.90
15906;DHT22;8051;50.820;4.884;2023-11-22T00:55:02;4.70;99.90
15906;DHT22;8051;50.820;4.884;2023-11-22T00:57:29;4.80;99.90
15906;DHT22;8051;50.820;4.884;2023-11-22T00:59:58;4.80;99.90
15906;DHT22;8051;50.820;4.884;2023-11-22T01:02:26;4.80;99.90
15906;DHT22;8051;50.820;4.884;2023-11-22T01:04:54;4.80;99.90
15906;DHT22;8051;50.820;4.884;2023-11-22T01:07:21;4.70;99.90
15906;DHT22;8051;50.820;4.884;2023-11-22T01:09:49;4.70;99.90
15906;DHT22;8051;50.820;4.884;2023-11-22T01:12:16;4.70;99.90
15906;DHT22;8051;50.820;4.884;2023-11-22T01:14:43;4.70;99.90
15906;DHT22;8051;50.820;4.884;2023-11-22T01:17:12;4.70;99.90
15906;DHT22;8051;50.820;4.884;2023-11-22T01:19:40;4.70;99.90
15906;DHT22;8051;50.820;4.884;2023-11-22T01:22:07;4.70;99.90
15906;DHT22;8051;50.820;4.884;2023-11-22T01:24:35;4.70;99.90
15906;DHT22;8051;50.820;4.884;2023-11-22T01:27:03;4.70;99.90
15906;DHT22;8051;50.820;4.884;2023-11-22T01:29:31;4.70;99.90
15906;DHT22;8051;50.820;4.884;2023-11-22T01:32:00;4.70;99.90
15906;DHT22;8051;50.820;4.884;2023-11-22T01:34:29;4.70;99.90
15906;DHT22;8051;50.820;4.884;2023-11-22T01:36:57;4.70;99.90
15906;DHT22;8051;50.820;4.884;2023-11-22T01:39:24;4.70;99.90
15906;DHT22;8051;50.820;4.884;2023-11-22T01:41:52;4.70;99.90
15906;DHT22;8051;50.820;4.884;2023-11-22T01:44:20;4.70;99.90
15906;DHT22;8051;50.820;4.884;2023-11-22T01:46:47;4.80;99.90
15906;DHT22;8051;50.820;4.884;2023-11-22T01:49:15;4.80;99.90
15906;DHT22;8051;50.820;4.884;2023-11-22T01:51:44;4.80;99.90
15906;DHT22;8051;50.820;4.884;2023-11-22T01:54:12;4.80;99.90
15906;DHT22;8051;50.820;4.884;2023-11-22T01:56:39;4.80;99.90
15906;DHT22;8051;50.820;4.884;2023-11-22T01:59:07;4.80;99.90
15906;DHT22;8051;50.820;4.884;2023-11-22T02:01:35;4.80;99.90
15906;DHT22;8051;50.820;4.884;2023-11-22T02:04:03;4.80;99.90
15906;DHT22;8051;50.820;4.884;2023-11-22T02:06:32;4.80;99.90
15906;DHT22;8051;50.820;4.884;2023-11-22T02:09:01;4.80;99.90
15906;DHT22;8051;50.820;4.884;2023-11-22T02:11:28;4.80;99.90
15906;DHT22;8051;50.820;4.884;2023-11-22T02:13:56;4.90;99.90
15906;DHT22;8051;50.820;4.884;2023-11-22T02:16:23;4.90;99.90
15906;DHT22;8051;50.820;4.884;2023-11-22T02:18:51;4.90;99.90
15906;DHT22;8051;50.820;4.884;2023-11-22T02:21:18;4.90;99.90
15906;DHT22;8051;50.820;4.884;2023-11-22T02:23:48;4.90;99.90
15906;DHT22;8051;50.820;4.884;2023-11-22T02:26:16;4.90;99.90
15906;DHT22;8051;50.820;4.884;2023-11-22T02:28:44;4.90;99.90
15906;DHT22;8051;50.820;4.884;2023-11-22T02:31:11;4.90;99.90
15906;DHT22;8051;50.820;4.884;2023-11-22T02:33:39;4.90;99.90
15906;DHT22;8051;50.820;4.884;2023-11-22T02:36:08;5.00;99.90
15906;DHT22;8051;50.820;4.884;2023-11-22T02:38:38;5.00;99.90
15906;DHT22;8051;50.820;4.884;2023-11-22T02:41:07;5.00;99.90
15906;DHT22;8051;50.820;4.884;2023-11-22T02:43:35;4.90;99.90
15906;DHT22;8051;50.820;4.884;2023-11-22T02:46:02;5.00;99.90
15906;DHT22;8051;50.820;4.884;2023-11-22T02:48:30;5.00;99.90
15906;DHT22;8051;50.820;4.884;2023-11-22T02:50:57;5.00;99.90
15906;DHT22;8051;50.820;4.884;2023-11-22T02:53:25;5.00;99.90
15906;DHT22;8051;50.820;4.884;2023-11-22T02:55:53;4.90;99.90
15906;DHT22;8051;50.820;4.884;2023-11-22T02:58:23;4.90;99.90
15906;DHT22;8051;50.820;4.884;2023-11-22T03:00:51;4.90;99.90
15906;DHT22;8051;50.820;4.884;2023-11-22T03:03:20;4.90;99.90
15906;DHT22;8051;50.820;4.884;2023-11-22T03:05:49;4.90;99.90
15906;DHT22;8051;50.820;4.884;2023-11-22T03:08:17;4.90;99.90
15906;DHT22;8051;50.820;4.884;2023-11-22T03:10:44;4.90;99.90
15906;DHT22;8051;50.820;4.884;2023-11-22T03:13:12;4.90;99.90
15906;DHT22;8051;50.820;4.884;2023-11-22T03:15:41;4.90;99.90
15906;DHT22;8051;50.820;4.884;2023-11-22T03:18:08;4.90;99.90
15906;DHT22;8051;50.820;4.884;2023-11-22T03:20:37;5.00;99.90
15906;DHT22;8051;50.820;4.884;2023-11-22T03:23:05;5.00;99.90
15906;DHT22;8051;50.820;4.884;2023-11-22T03:25:32;5.00;99.90
15906;DHT22;8051;50.820;4.884;2023-11-22T03:28:00;5.00;99.90
15906;DHT22;8051;50.820;4.884;2023-11-22T03:30:27;5.00;99.90
15906;DHT22;8051;50.820;4.884;2023-11-22T03:32:56;5.00;99.90
15906;DHT22;8051;50.820;4.884;2023-11-22T03:35:23;5.00;99.90
15906;DHT22;8051;50.820;4.884;2023-11-22T03:37:51;4.90;99.90
15906;DHT22;8051;50.820;4.884;2023-11-22T03:40:18;4.90;99.90
15906;DHT22;8051;50.820;4.884;2023-11-22T03:42:46;5.00;99.90
15906;DHT22;8051;50.820;4.884;2023-11-22T03:45:12;5.00;99.90
15906;DHT22;8051;50.820;4.884;2023-11-22T03:47:40;5.00;99.90
15906;DHT22;8051;50.820;4.884;2023-11-22T03:50:09;5.00;99.90
15906;DHT22;8051;50.820;4.884;2023-11-22T03:52:36;5.00;99.90
15906;DHT22;8051;50.820;4.884;2023-11-22T03:55:05;5.00;99.90
15906;DHT22;8051;50.820;4.884;2023-11-22T03:57:32;5.00;99.90
15906;DHT22;8051;50.820;4.884;2023-11-22T04:00:00;4.90;99.90
15906;DHT22;8051;50.820;4.884;2023-11-22T04:02:27;5.00;99.90
15906;DHT22;8051;50.820;4.884;2023-11-22T04:04:55;5.00;99.90
15906;DHT22;8051;50.820;4.884;2023-11-22T04:07:24;5.00;99.90
15906;DHT22;8051;50.820;4.884;2023-11-22T04:09:52;5.00;99.90
15906;DHT22;8051;50.820;4.884;2023-11-22T04:12:19;5.00;99.90
15906;DHT22;8051;50.820;4.884;2023-11-22T04:14:47;5.00;99.90
15906;DHT22;8051;50.820;4.884;2023-11-22T04:17:15;5.10;99.90
15906;DHT22;8051;50.820;4.884;2023-11-22T04:19:43;5.10;99.90
15906;DHT22;8051;50.820;4.884;2023-11-22T04:22:10;5.10;99.90
15906;DHT22;8051;50.820;4.884;2023-11-22T04:24:39;5.10;99.90
15906;DHT22;8051;50.820;4.884;2023-11-22T04:27:06;5.10;99.90
15906;DHT22;8051;50.820;4.884;2023-11-22T04:29:34;5.10;99.90
15906;DHT22;8051;50.820;4.884;2023-11-22T04:32:02;5.10;99.90
15906;DHT22;8051;50.820;4.884;2023-11-22T04:34:29;5.00;99.90
15906;DHT22;8051;50.820;4.884;2023-11-22T04:36:57;4.90;99.90
15906;DHT22;8051;50.820;4.884;2023-11-22T04:39:24;4.90;99.90
15906;DHT22;8051;50.820;4.884;2023-11-22T04:41:53;4.90;99.90
15906;DHT22;8051;50.820;4.884;2023-11-22T04:44:21;4.90;99.90
15906;DHT22;8051;50.820;4.884;2023-11-22T04:46:48;4.90;99.90
15906;DHT22;8051;50.820;4.884;2023-11-22T04:49:16;4.90;99.90
15906;DHT22;8051;50.820;4.884;2023-11-22T04:51:43;4.90;99.90
15906;DHT22;8051;50.820;4.884;2023-11-22T04:54:12;4.90;99.90
15906;DHT22;8051;50.820;4.884;2023-11-22T04:56:39;4.80;99.90
15906;DHT22;8051;50.820;4.884;2023-11-22T04:59:08;4.80;99.90
15906;DHT22;8051;50.820;4.884;2023-11-22T05:01:36;4.80;99.90
15906;DHT22;8051;50.820;4.884;2023-11-22T05:04:04;4.80;99.90
15906;DHT22;8051;50.820;4.884;2023-11-22T05:06:31;4.80;99.90
15906;DHT22;8051;50.820;4.884;2023-11-22T05:08:58;4.70;99.90
15906;DHT22;8051;50.820;4.884;2023-11-22T05:11:26;4.70;99.90
15906;DHT22;8051;50.820;4.884;2023-11-22T05:13:53;4.60;99.90
15906;DHT22;8051;50.820;4.884;2023-11-22T05:16:22;4.70;99.90
15906;DHT22;8051;50.820;4.884;2023-11-22T05:18:49;4.70;99.90
15906;DHT22;8051;50.820;4.884;2023-11-22T05:21:17;4.60;99.90
15906;DHT22;8051;50.820;4.884;2023-11-22T05:23:44;4.60;99.90
15906;DHT22;8051;50.820;4.884;2023-11-22T05:26:12;4.60;99.90
15906;DHT22;8051;50.820;4.884;2023-11-22T05:28:39;4.70;99.90
15906;DHT22;8051;50.820;4.884;2023-11-22T05:31:06;4.70;99.90
15906;DHT22;8051;50.820;4.884;2023-11-22T05:33:35;4.70;99.90
15906;DHT22;8051;50.820;4.884;2023-11-22T05:36:03;4.70;99.90
15906;DHT22;8051;50.820;4.884;2023-11-22T05:38:30;4.70;99.90
15906;DHT22;8051;50.820;4.884;2023-11-22T05:40:59;4.60;99.90
15906;DHT22;8051;50.820;4.884;2023-11-22T05:43:27;4.60;99.90
15906;DHT22;8051;50.820;4.884;2023-11-22T05:45:54;4.60;99.90
15906;DHT22;8051;50.820;4.884;2023-11-22T05:48:22;4.60;99.90
15906;DHT22;8051;50.820;4.884;2023-11-22T05:50:51;4.60;99.90
15906;DHT22;8051;50.820;4.884;2023-11-22T05:53:18;4.70;99.90
15906;DHT22;8051;50.820;4.884;2023-11-22T05:55:47;4.70;99.90
15906;DHT22;8051;50.820;4.884;2023-11-22T05:58:14;4.60;99.90
15906;DHT22;8051;50.820;4.884;2023-11-22T06:00:43;4.60;99.90
15906;DHT22;8051;50.820;4.884;2023-11-22T06:03:10;4.70;99.90
15906;DHT22;8051;50.820;4.884;2023-11-22T06:05:38;4.60;99.90
15906;DHT22;8051;50.820;4.884;2023-11-22T06:08:07;4.50;99.90
15906;DHT22;8051;50.820;4.884;2023-11-22T06:10:36;4.60;99.90
15906;DHT22;8051;50.820;4.884;2023-11-22T06:13:04;4.70;99.90
15906;DHT22;8051;50.820;4.884;2023-11-22T06:15:31;4.70;99.90
15906;DHT22;8051;50.820;4.884;2023-11-22T06:17:59;4.70;99.90
15906;DHT22;8051;50.820;4.884;2023-11-22T06:20:26;4.70;99.90
15906;DHT22;8051;50.820;4.884;2023-11-22T06:22:54;4.70;99.90
15906;DHT22;8051;50.820;4.884;2023-11-22T06:25:23;4.70;99.90
15906;DHT22;8051;50.820;4.884;2023-11-22T06:27:50;4.70;99.90
15906;DHT22;8051;50.820;4.884;2023-11-22T06:30:18;4.70;99.90
15906;DHT22;8051;50.820;4.884;2023-11-22T06:32:45;4.70;99.90
15906;DHT22;8051;50.820;4.884;2023-11-22T06:35:13;4.70;99.90
15906;DHT22;8051;50.820;4.884;2023-11-22T06:37:41;4.70;99.90
15906;DHT22;8051;50.820;4.884;2023-11-22T06:40:09;4.70;99.90
15906;DHT22;8051;50.820;4.884;2023-11-22T06:42:39;4.70;99.90
15906;DHT22;8051;50.820;4.884;2023-11-22T06:45:07;4.70;99.90
15906;DHT22;8051;50.820;4.884;2023-11-22T06:47:38;4.60;99.90
15906;DHT22;8051;50.820;4.884;2023-11-22T06:50:06;4.70;99.90
15906;DHT22;8051;50.820;4.884;2023-11-22T06:52:36;4.70;99.90
15906;DHT22;8051;50.820;4.884;2023-11-22T06:55:04;4.70;99.90
15906;DHT22;8051;50.820;4.884;2023-11-22T06:57:33;4.70;99.90
15906;DHT22;8051;50.820;4.884;2023-11-22T07:00:03;4.70;99.90
15906;DHT22;8051;50.820;4.884;2023-11-22T07:02:31;4.70;99.90
15906;DHT22;8051;50.820;4.884;2023-11-22T07:04:59;4.80;99.90
15906;DHT22;8051;50.820;4.884;2023-11-22T07:07:26;4.80;99.90
15906;DHT22;8051;50.820;4.884;2023-11-22T07:09:55;4.90;99.90
15906;DHT22;8051;50.820;4.884;2023-11-22T07:12:24;4.90;99.90
15906;DHT22;8051;50.820;4.884;2023-11-22T07:14:52;4.80;99.90
15906;DHT22;8051;50.820;4.884;2023-11-22T07:17:21;4.80;99.90
15906;DHT22;8051;50.820;4.884;2023-11-22T07:19:49;4.70;99.90
15906;DHT22;8051;50.820;4.884;2023-11-22T07:22:17;4.70;99.90
15906;DHT22;8051;50.820;4.884;2023-11-22T07:24:45;4.70;99.90
15906;DHT22;8051;50.820;4.884;2023-11-22T07:27:13;4.80;99.90
15906;DHT22;8051;50.820;4.884;2023-11-22T07:29:41;4.80;99.90
15906;DHT22;8051;50.820;4.884;2023-11-22T07:32:09;4.80;99.90
15906;DHT22;8051;50.820;4.884;2023-11-22T07:34:39;4.80;99.90
15906;DHT22;8051;50.820;4.884;2023-11-22T07:37:07;4.80;99.90
15906;DHT22;8051;50.820;4.884;2023-11-22T07:39:35;4.80;99.90
15906;DHT22;8051;50.820;4.884;2023-11-22T07:42:05;4.90;99.90
15906;DHT22;8051;50.820;4.884;2023-11-22T07:44:35;5.00;99.90
15906;DHT22;8051;50.820;4.884;2023-11-22T07:47:04;5.00;99.90
15906;DHT22;8051;50.820;4.884;2023-11-22T07:49:35;5.00;99.90
15906;DHT22;8051;50.820;4.884;2023-11-22T07:52:06;5.00;99.90
15906;DHT22;8051;50.820;4.884;2023-11-22T07:54:34;5.00;99.90
15906;DHT22;8051;50.820;4.884;2023-11-22T07:57:02;5.10;99.90
15906;DHT22;8051;50.820;4.884;2023-11-22T07:59:30;5.10;99.90
15906;DHT22;8051;50.820;4.884;2023-11-22T08:01:57;5.10;99.90
15906;DHT22;8051;50.820;4.884;2023-11-22T08:04:27;5.00;99.90
15906;DHT22;8051;50.820;4.884;2023-11-22T08:06:57;4.90;99.90
15906;DHT22;8051;50.820;4.884;2023-11-22T08:09:26;5.00;99.90
15906;DHT22;8051;50.820;4.884;2023-11-22T08:11:57;5.00;99.90
15906;DHT22;8051;50.820;4.884;2023-11-22T08:14:24;5.10;99.90
15906;DHT22;8051;50.820;4.884;2023-11-22T08:16:53;5.20;99.90
15906;DHT22;8051;50.820;4.884;2023-11-22T08:19:21;5.20;99.90
15906;DHT22;8051;50.820;4.884;2023-11-22T08:21:49;5.20;99.90
15906;DHT22;8051;50.820;4.884;2023-11-22T08:24:17;5.30;99.90
15906;DHT22;8051;50.820;4.884;2023-11-22T08:26:46;5.30;99.90
15906;DHT22;8051;50.820;4.884;2023-11-22T08:29:13;5.40;99.90
15906;DHT22;8051;50.820;4.884;2023-11-22T08:31:42;5.40;99.90
15906;DHT22;8051;50.820;4.884;2023-11-22T08:34:09;5.40;99.90
15906;DHT22;8051;50.820;4.884;2023-11-22T08:36:37;5.50;99.90
15906;DHT22;8051;50.820;4.884;2023-11-22T08:39:04;5.60;99.90
15906;DHT22;8051;50.820;4.884;2023-11-22T08:41:33;5.70;99.90
15906;DHT22;8051;50.820;4.884;2023-11-22T08:44:02;5.80;99.90
15906;DHT22;8051;50.820;4.884;2023-11-22T08:46:30;5.80;99.90
15906;DHT22;8051;50.820;4.884;2023-11-22T08:48:58;5.80;99.90
15906;DHT22;8051;50.820;4.884;2023-11-22T08:51:26;5.60;99.90
15906;DHT22;8051;50.820;4.884;2023-11-22T08:53:53;5.60;99.90
15906;DHT22;8051;50.820;4.884;2023-11-22T08:56:21;5.70;99.90
15906;DHT22;8051;50.820;4.884;2023-11-22T08:58:48;5.80;99.90
15906;DHT22;8051;50.820;4.884;2023-11-22T09:01:17;5.90;99.90
15906;DHT22;8051;50.820;4.884;2023-11-22T09:03:45;6.00;99.90
15906;DHT22;8051;50.820;4.884;2023-11-22T09:06:13;6.10;99.90
15906;DHT22;8051;50.820;4.884;2023-11-22T09:08:40;6.10;99.90
15906;DHT22;8051;50.820;4.884;2023-11-22T09:11:08;5.90;99.90
15906;DHT22;8051;50.820;4.884;2023-11-22T09:13:35;5.90;99.90
15906;DHT22;8051;50.820;4.884;2023-11-22T09:16:03;6.00;99.90
15906;DHT22;8051;50.820;4.884;2023-11-22T09:18:33;6.10;99.90
15906;DHT22;8051;50.820;4.884;2023-11-22T09:21:00;6.10;99.90
15906;DHT22;8051;50.820;4.884;2023-11-22T09:23:28;6.20;99.90
15906;DHT22;8051;50.820;4.884;2023-11-22T09:25:55;6.20;99.90
15906;DHT22;8051;50.820;4.884;2023-11-22T09:28:23;6.10;99.90
15906;DHT22;8051;50.820;4.884;2023-11-22T09:30:50;6.00;99.90
15906;DHT22;8051;50.820;4.884;2023-11-22T09:33:18;6.10;99.90
15906;DHT22;8051;50.820;4.884;2023-11-22T09:35:47;6.10;99.90
15906;DHT22;8051;50.820;4.884;2023-11-22T09:38:15;6.20;99.90
15906;DHT22;8051;50.820;4.884;2023-11-22T09:40:43;6.30;99.90
15906;DHT22;8051;50.820;4.884;2023-11-22T09:43:12;6.40;99.90
15906;DHT22;8051;50.820;4.884;2023-11-22T09:45:43;6.50;99.90
15906;DHT22;8051;50.820;4.884;2023-11-22T09:48:16;6.70;99.90
15906;DHT22;8051;50.820;4.884;2023-11-22T09:50:53;6.90;99.90
15906;DHT22;8051;50.820;4.884;2023-11-22T09:53:28;6.90;99.90
15906;DHT22;8051;50.820;4.884;2023-11-22T09:55:58;7.10;99.90
15906;DHT22;8051;50.820;4.884;2023-11-22T09:58:29;7.10;99.90
15906;DHT22;8051;50.820;4.884;2023-11-22T10:00:57;7.20;99.90
15906;DHT22;8051;50.820;4.884;2023-11-22T10:03:27;7.20;99.90
15906;DHT22;8051;50.820;4.884;2023-11-22T10:05:57;7.30;99.90
15906;DHT22;8051;50.820;4.884;2023-11-22T10:08:25;7.30;99.90
15906;DHT22;8051;50.820;4.884;2023-11-22T10:10:53;7.30;99.90
15906;DHT22;8051;50.820;4.884;2023-11-22T10:13:21;7.50;99.90
15906;DHT22;8051;50.820;4.884;2023-11-22T10:15:49;7.50;99.90
15906;DHT22;8051;50.820;4.884;2023-11-22T10:18:17;7.70;99.90
15906;DHT22;8051;50.820;4.884;2023-11-22T10:20:46;7.70;99.90
15906;DHT22;8051;50.820;4.884;2023-11-22T10:23:15;7.70;99.90
15906;DHT22;8051;50.820;4.884;2023-11-22T10:25:44;7.60;99.90
15906;DHT22;8051;50.820;4.884;2023-11-22T10:28:13;7.70;99.90
15906;DHT22;8051;50.820;4.884;2023-11-22T10:30:41;7.70;99.90
15906;DHT22;8051;50.820;4.884;2023-11-22T10:33:10;7.70;99.90
15906;DHT22;8051;50.820;4.884;2023-11-22T10:35:41;7.70;99.90
15906;DHT22;8051;50.820;4.884;2023-11-22T10:38:09;7.60;99.90
15906;DHT22;8051;50.820;4.884;2023-11-22T10:40:38;7.50;99.90
15906;DHT22;8051;50.820;4.884;2023-11-22T10:43:07;7.40;99.90
15906;DHT22;8051;50.820;4.884;2023-11-22T10:45:37;7.40;99.90
15906;DHT22;8051;50.820;4.884;2023-11-22T10:48:05;7.20;99.90
15906;DHT22;8051;50.820;4.884;2023-11-22T10:50:35;6.90;99.90
15906;DHT22;8051;50.820;4.884;2023-11-22T10:53:07;6.80;99.90
15906;DHT22;8051;50.820;4.884;2023-11-22T10:55:44;6.80;99.90
15906;DHT22;8051;50.820;4.884;2023-11-22T10:58:14;6.90;99.90
15906;DHT22;8051;50.820;4.884;2023-11-22T11:00:43;7.00;99.90
15906;DHT22;8051;50.820;4.884;2023-11-22T11:03:14;7.10;99.90
15906;DHT22;8051;50.820;4.884;2023-11-22T11:05:47;7.10;99.90
15906;DHT22;8051;50.820;4.884;2023-11-22T11:08:17;6.90;99.90
15906;DHT22;8051;50.820;4.884;2023-11-22T11:10:48;7.00;99.90
15906;DHT22;8051;50.820;4.884;2023-11-22T11:13:17;7.00;99.90
15906;DHT22;8051;50.820;4.884;2023-11-22T11:15:44;7.20;99.90
15906;DHT22;8051;50.820;4.884;2023-11-22T11:18:15;7.40;99.90
15906;DHT22;8051;50.820;4.884;2023-11-22T11:20:47;7.50;99.90
15906;DHT22;8051;50.820;4.884;2023-11-22T11:23:16;7.70;99.90
15906;DHT22;8051;50.820;4.884;2023-11-22T11:25:49;7.90;99.90
15906;DHT22;8051;50.820;4.884;2023-11-22T11:28:16;8.00;99.90
15906;DHT22;8051;50.820;4.884;2023-11-22T11:30:44;7.90;99.90
15906;DHT22;8051;50.820;4.884;2023-11-22T11:33:15;7.90;99.90
15906;DHT22;8051;50.820;4.884;2023-11-22T11:35:45;7.70;99.90
15906;DHT22;8051;50.820;4.884;2023-11-22T11:38:14;7.50;99.90
15906;DHT22;8051;50.820;4.884;2023-11-22T11:40:45;7.60;99.90
15906;DHT22;8051;50.820;4.884;2023-11-22T11:43:14;7.70;99.90
15906;DHT22;8051;50.820;4.884;2023-11-22T11:45:43;7.90;99.90
15906;DHT22;8051;50.820;4.884;2023-11-22T11:48:13;7.90;99.90
15906;DHT22;8051;50.820;4.884;2023-11-22T11:50:41;7.90;99.90
15906;DHT22;8051;50.820;4.884;2023-11-22T11:53:09;8.00;99.90
15906;DHT22;8051;50.820;4.884;2023-11-22T11:55:37;8.10;99.90
15906;DHT22;8051;50.820;4.884;2023-11-22T11:58:05;8.20;99.90
15906;DHT22;8051;50.820;4.884;2023-11-22T12:00:36;8.30;99.90
15906;DHT22;8051;50.820;4.884;2023-11-22T12:03:07;8.40;99.90
15906;DHT22;8051;50.820;4.884;2023-11-22T12:05:36;8.50;99.90
15906;DHT22;8051;50.820;4.884;2023-11-22T12:08:04;8.50;99.90
15906;DHT22;8051;50.820;4.884;2023-11-22T12:10:32;8.50;99.90
15906;DHT22;8051;50.820;4.884;2023-11-22T12:13:00;8.50;99.90
15906;DHT22;8051;50.820;4.884;2023-11-22T12:15:27;8.30;99.90
15906;DHT22;8051;50.820;4.884;2023-11-22T12:17:57;8.30;99.90
15906;DHT22;8051;50.820;4.884;2023-11-22T12:20:27;8.20;99.90
15906;DHT22;8051;50.820;4.884;2023-11-22T12:22:57;8.00;99.90
15906;DHT22;8051;50.820;4.884;2023-11-22T12:25:27;7.90;99.90
15906;DHT22;8051;50.820;4.884;2023-11-22T12:27:54;7.90;99.90
15906;DHT22;8051;50.820;4.884;2023-11-22T12:30:29;7.90;99.90
15906;DHT22;8051;50.820;4.884;2023-11-22T12:33:00;7.90;99.90
15906;DHT22;8051;50.820;4.884;2023-11-22T12:35:30;7.80;99.90
15906;DHT22;8051;50.820;4.884;2023-11-22T12:37:59;7.80;99.90
15906;DHT22;8051;50.820;4.884;2023-11-22T12:40:28;7.80;99.90
15906;DHT22;8051;50.820;4.884;2023-11-22T12:42:59;7.80;99.90
15906;DHT22;8051;50.820;4.884;2023-11-22T12:45:29;7.60;99.90
15906;DHT22;8051;50.820;4.884;2023-11-22T12:48:00;7.60;99.90
15906;DHT22;8051;50.820;4.884;2023-11-22T12:50:34;7.50;99.90
15906;DHT22;8051;50.820;4.884;2023-11-22T12:53:10;7.50;99.90
15906;DHT22;8051;50.820;4.884;2023-11-22T12:55:42;7.60;99.90
15906;DHT22;8051;50.820;4.884;2023-11-22T12:58:11;7.50;99.90
15906;DHT22;8051;50.820;4.884;2023-11-22T13:00:38;7.50;99.90
15906;DHT22;8051;50.820;4.884;2023-11-22T13:03:08;7.30;99.90
15906;DHT22;8051;50.820;4.884;2023-11-22T13:05:36;7.20;99.90
15906;DHT22;8051;50.820;4.884;2023-11-22T13:08:04;7.20;99.90
15906;DHT22;8051;50.820;4.884;2023-11-22T13:10:32;7.20;99.90
15906;DHT22;8051;50.820;4.884;2023-11-22T13:12:59;7.10;99.90
15906;DHT22;8051;50.820;4.884;2023-11-22T13:15:28;7.10;99.90
15906;DHT22;8051;50.820;4.884;2023-11-22T13:17:56;7.00;99.90
15906;DHT22;8051;50.820;4.884;2023-11-22T13:20:25;7.00;99.90
15906;DHT22;8051;50.820;4.884;2023-11-22T13:22:53;6.90;99.90
15906;DHT22;8051;50.820;4.884;2023-11-22T13:25:21;6.80;99.90
15906;DHT22;8051;50.820;4.884;2023-11-22T13:27:50;6.80;99.90
15906;DHT22;8051;50.820;4.884;2023-11-22T13:30:18;6.90;99.90
15906;DHT22;8051;50.820;4.884;2023-11-22T13:32:48;7.10;99.90
15906;DHT22;8051;50.820;4.884;2023-11-22T13:35:16;7.20;99.90
15906;DHT22;8051;50.820;4.884;2023-11-22T13:37:47;7.30;99.90
15906;DHT22;8051;50.820;4.884;2023-11-22T13:40:16;7.30;99.90
15906;DHT22;8051;50.820;4.884;2023-11-22T13:42:45;7.40;99.90
15906;DHT22;8051;50.820;4.884;2023-11-22T13:45:14;7.60;99.90
15906;DHT22;8051;50.820;4.884;2023-11-22T13:47:43;7.80;99.90
15906;DHT22;8051;50.820;4.884;2023-11-22T13:50:13;8.00;99.90
15906;DHT22;8051;50.820;4.884;2023-11-22T13:52:46;8.10;99.90
15906;DHT22;8051;50.820;4.884;2023-11-22T13:55:14;8.10;99.90
15906;DHT22;8051;50.820;4.884;2023-11-22T13:57:43;8.00;99.90
15906;DHT22;8051;50.820;4.884;2023-11-22T14:00:11;7.90;99.90
15906;DHT22;8051;50.820;4.884;2023-11-22T14:02:44;7.80;99.90
15906;DHT22;8051;50.820;4.884;2023-11-22T14:05:12;7.60;99.90
15906;DHT22;8051;50.820;4.884;2023-11-22T14:07:41;7.40;99.90
15906;DHT22;8051;50.820;4.884;2023-11-22T14:10:11;7.30;99.90
15906;DHT22;8051;50.820;4.884;2023-11-22T14:12:43;7.20;99.90
15906;DHT22;8051;50.820;4.884;2023-11-22T14:15:12;7.10;99.90
15906;DHT22;8051;50.820;4.884;2023-11-22T14:17:39;7.20;99.90
15906;DHT22;8051;50.820;4.884;2023-11-22T14:20:08;7.30;99.90
15906;DHT22;8051;50.820;4.884;2023-11-22T14:22:37;7.40;99.90
15906;DHT22;8051;50.820;4.884;2023-11-22T14:25:06;7.50;99.90
15906;DHT22;8051;50.820;4.884;2023-11-22T14:27:38;7.50;99.90
15906;DHT22;8051;50.820;4.884;2023-11-22T14:30:07;7.50;99.90
15906;DHT22;8051;50.820;4.884;2023-11-22T14:32:36;7.60;99.90
15906;DHT22;8051;50.820;4.884;2023-11-22T14:35:04;7.50;99.90
15906;DHT22;8051;50.820;4.884;2023-11-22T14:37:33;7.50;99.90
15906;DHT22;8051;50.820;4.884;2023-11-22T14:40:01;7.40;99.90
15906;DHT22;8051;50.820;4.884;2023-11-22T14:42:30;7.40;99.90
15906;DHT22;8051;50.820;4.884;2023-11-22T14:44:59;7.50;99.90
15906;DHT22;8051;50.820;4.884;2023-11-22T14:47:26;7.50;99.90
15906;DHT22;8051;50.820;4.884;2023-11-22T14:49:56;7.50;99.90
15906;DHT22;8051;50.820;4.884;2023-11-22T14:52:24;7.50;99.90
15906;DHT22;8051;50.820;4.884;2023-11-22T14:54:52;7.40;99.90
15906;DHT22;8051;50.820;4.884;2023-11-22T14:57:20;7.40;99.90
15906;DHT22;8051;50.820;4.884;2023-11-22T14:59:47;7.40;99.90
15906;DHT22;8051;50.820;4.884;2023-11-22T15:02:17;7.40;99.90
15906;DHT22;8051;50.820;4.884;2023-11-22T15:04:44;7.30;99.90
15906;DHT22;8051;50.820;4.884;2023-11-22T15:07:13;7.30;99.90
15906;DHT22;8051;50.820;4.884;2023-11-22T15:09:40;7.30;99.90
15906;DHT22;8051;50.820;4.884;2023-11-22T15:12:09;7.30;99.90
15906;DHT22;8051;50.820;4.884;2023-11-22T15:14:36;7.30;99.90
15906;DHT22;8051;50.820;4.884;2023-11-22T15:17:04;7.30;99.90
15906;DHT22;8051;50.820;4.884;2023-11-22T15:19:33;7.20;99.90
15906;DHT22;8051;50.820;4.884;2023-11-22T15:22:03;7.30;99.90
15906;DHT22;8051;50.820;4.884;2023-11-22T15:24:31;7.20;99.90
15906;DHT22;8051;50.820;4.884;2023-11-22T15:26:59;7.20;99.90
15906;DHT22;8051;50.820;4.884;2023-11-22T15:29:26;7.20;99.90
15906;DHT22;8051;50.820;4.884;2023-11-22T15:31:54;7.20;99.90
15906;DHT22;8051;50.820;4.884;2023-11-22T15:34:21;7.30;99.90
15906;DHT22;8051;50.820;4.884;2023-11-22T15:36:50;7.30;99.90
15906;DHT22;8051;50.820;4.884;2023-11-22T15:39:17;7.20;99.90
15906;DHT22;8051;50.820;4.884;2023-11-22T15:41:48;7.20;99.90
15906;DHT22;8051;50.820;4.884;2023-11-22T15:44:15;7.20;99.90
15906;DHT22;8051;50.820;4.884;2023-11-22T15:46:43;7.20;99.90
15906;DHT22;8051;50.820;4.884;2023-11-22T15:49:10;7.20;99.90
15906;DHT22;8051;50.820;4.884;2023-11-22T15:51:37;7.20;99.90
15906;DHT22;8051;50.820;4.884;2023-11-22T15:54:06;7.20;99.90
15906;DHT22;8051;50.820;4.884;2023-11-22T15:56:34;7.20;99.90
15906;DHT22;8051;50.820;4.884;2023-11-22T15:59:01;7.20;99.90
15906;DHT22;8051;50.820;4.884;2023-11-22T16:01:29;7.20;99.90
15906;DHT22;8051;50.820;4.884;2023-11-22T16:03:57;7.10;99.90
15906;DHT22;8051;50.820;4.884;2023-11-22T16:06:24;7.00;99.90
15906;DHT22;8051;50.820;4.884;2023-11-22T16:08:53;7.00;99.90